sensor_id;sensor_type;location;lat;lon;timestamp;temperature;humidity
5508;DHT22;2776;51.046;6.772;2023-04-01T00:00:19;10.20;99.90
5508;DHT22;2776;51.046;6.772;2023-04-01T00:02:55;10.10;99.90
5508;DHT22;2776;51.046;6.772;2023-04-01T00:05:32;10.20;99.90
5508;DHT22;2776;51.046;6.772;2023-04-01T00:08:03;10.10;99.90
5508;DHT22;2776;51.046;6.772;2023-04-01T00:10:38;10.10;99.90
5508;DHT22;2776;51.046;6.772;2023-04-01T00:13:13;10.10;99.90
5508;DHT22;2776;51.046;6.772;2023-04-01T00:15:51;10.10;99.90
5508;DHT22;2776;51.046;6.772;2023-04-01T00:18:30;10.20;99.90
5508;DHT22;2776;51.046;6.772;2023-04-01T00:21:05;10.20;99.90
5508;DHT22;2776;51.046;6.772;2023-04-01T00:23:37;10.20;99.90
5508;DHT22;2776;51.046;6.772;2023-04-01T00:26:15;10.10;99.90
5508;DHT22;2776;51.046;6.772;2023-04-01T00:28:58;10.20;99.90
5508;DHT22;2776;51.046;6.772;2023-04-01T00:31:36;10.10;99.90
5508;DHT22;2776;51.046;6.772;2023-04-01T00:34:17;10.10;99.90
5508;DHT22;2776;51.046;6.772;2023-04-01T00:36:53;10.10;99.90
5508;DHT22;2776;51.046;6.772;2023-04-01T00:39:30;10.10;99.90
5508;DHT22;2776;51.046;6.772;2023-04-01T00:42:06;10.10;99.90
5508;DHT22;2776;51.046;6.772;2023-04-01T00:44:44;10.10;99.90
5508;DHT22;2776;51.046;6.772;2023-04-01T00:47:22;10.10;99.90
5508;DHT22;2776;51.046;6.772;2023-04-01T00:50:03;10.10;99.90
5508;DHT22;2776;51.046;6.772;2023-04-01T00:52:41;10.20;99.90
5508;DHT22;2776;51.046;6.772;2023-04-01T00:55:25;10.20;99.90
5508;DHT22;2776;51.046;6.772;2023-04-01T00:58:03;10.20;99.90
5508;DHT22;2776;51.046;6.772;2023-04-01T01:00:45;10.10;99.90
5508;DHT22;2776;51.046;6.772;2023-04-01T01:03:26;10.10;99.90
5508;DHT22;2776;51.046;6.772;2023-04-01T01:06:19;10.10;99.90
5508;DHT22;2776;51.046;6.772;2023-04-01T01:09:29;10.10;99.90
5508;DHT22;2776;51.046;6.772;2023-04-01T01:12:10;10.10;99.90
5508;DHT22;2776;51.046;6.772;2023-04-01T01:14:56;10.10;99.90
5508;DHT22;2776;51.046;6.772;2023-04-01T01:30:03;10.00;99.90
5508;DHT22;2776;51.046;6.772;2023-04-01T01:36:06;10.00;99.90
5508;DHT22;2776;51.046;6.772;2023-04-01T01:38:49;10.00;99.90
5508;DHT22;2776;51.046;6.772;2023-04-01T01:41:30;10.00;99.90
5508;DHT22;2776;51.046;6.772;2023-04-01T01:44:13;10.00;99.90
5508;DHT22;2776;51.046;6.772;2023-04-01T01:46:56;10.00;99.90
5508;DHT22;2776;51.046;6.772;2023-04-01T01:49:38;9.90;99.90
5508;DHT22;2776;51.046;6.772;2023-04-01T01:52:20;9.90;99.90
5508;DHT22;2776;51.046;6.772;2023-04-01T01:54:59;9.90;99.90
5508;DHT22;2776;51.046;6.772;2023-04-01T01:57:44;9.80;99.90
5508;DHT22;2776;51.046;6.772;2023-04-01T02:00:17;9.80;99.90
5508;DHT22;2776;51.046;6.772;2023-04-01T02:02:52;9.70;99.90
5508;DHT22;2776;51.046;6.772;2023-04-01T02:05:32;9.70;99.90
5508;DHT22;2776;51.046;6.772;2023-04-01T02:08:15;9.80;99.90
5508;DHT22;2776;51.046;6.772;2023-04-01T02:10:57;9.70;99.90
5508;DHT22;2776;51.046;6.772;2023-04-01T02:13:35;9.70;99.90
5508;DHT22;2776;51.046;6.772;2023-04-01T02:16:23;9.70;99.90
5508;DHT22;2776;51.046;6.772;2023-04-01T02:19:03;9.70;99.90
5508;DHT22;2776;51.046;6.772;2023-04-01T02:21:44;9.70;99.90
5508;DHT22;2776;51.046;6.772;2023-04-01T02:24:29;9.60;99.90
5508;DHT22;2776;51.046;6.772;2023-04-01T02:27:26;9.60;99.90
5508;DHT22;2776;51.046;6.772;2023-04-01T02:30:08;9.60;99.90
5508;DHT22;2776;51.046;6.772;2023-04-01T02:32:49;9.60;99.90
5508;DHT22;2776;51.046;6.772;2023-04-01T02:35:27;9.60;99.90
5508;DHT22;2776;51.046;6.772;2023-04-01T02:38:05;9.60;99.90
5508;DHT22;2776;51.046;6.772;2023-04-01T02:40:57;9.60;99.90
5508;DHT22;2776;51.046;6.772;2023-04-01T02:43:32;9.60;99.90
5508;DHT22;2776;51.046;6.772;2023-04-01T02:46:08;9.60;99.90
5508;DHT22;2776;51.046;6.772;2023-04-01T02:48:43;9.60;99.90
5508;DHT22;2776;51.046;6.772;2023-04-01T02:51:18;9.60;99.90
5508;DHT22;2776;51.046;6.772;2023-04-01T02:54:00;9.60;99.90
5508;DHT22;2776;51.046;6.772;2023-04-01T02:56:43;9.60;99.90
5508;DHT22;2776;51.046;6.772;2023-04-01T02:59:19;9.60;99.90
5508;DHT22;2776;51.046;6.772;2023-04-01T03:02:04;9.60;99.90
5508;DHT22;2776;51.046;6.772;2023-04-01T03:04:48;9.70;99.90
5508;DHT22;2776;51.046;6.772;2023-04-01T03:07:26;9.60;99.90
5508;DHT22;2776;51.046;6.772;2023-04-01T03:10:08;9.70;99.90
5508;DHT22;2776;51.046;6.772;2023-04-01T03:12:53;9.70;99.90
5508;DHT22;2776;51.046;6.772;2023-04-01T03:15:35;9.70;99.90
5508;DHT22;2776;51.046;6.772;2023-04-01T03:18:10;9.70;99.90
5508;DHT22;2776;51.046;6.772;2023-04-01T03:20:53;9.80;99.90
5508;DHT22;2776;51.046;6.772;2023-04-01T03:23:39;9.70;99.90
5508;DHT22;2776;51.046;6.772;2023-04-01T03:26:20;9.70;99.90
5508;DHT22;2776;51.046;6.772;2023-04-01T03:29:06;9.80;99.90
5508;DHT22;2776;51.046;6.772;2023-04-01T03:31:48;9.80;99.90
5508;DHT22;2776;51.046;6.772;2023-04-01T03:34:28;9.80;99.90
5508;DHT22;2776;51.046;6.772;2023-04-01T03:37:13;9.80;99.90
5508;DHT22;2776;51.046;6.772;2023-04-01T03:39:50;9.80;99.90
5508;DHT22;2776;51.046;6.772;2023-04-01T03:42:30;9.80;99.90
5508;DHT22;2776;51.046;6.772;2023-04-01T03:45:10;9.70;99.90
5508;DHT22;2776;51.046;6.772;2023-04-01T03:47:45;9.80;99.90
5508;DHT22;2776;51.046;6.772;2023-04-01T03:50:25;9.70;99.90
5508;DHT22;2776;51.046;6.772;2023-04-01T03:53:01;9.60;99.90
5508;DHT22;2776;51.046;6.772;2023-04-01T03:55:39;9.60;99.90
5508;DHT22;2776;51.046;6.772;2023-04-01T03:58:19;9.60;99.90
5508;DHT22;2776;51.046;6.772;2023-04-01T04:01:03;9.60;99.90
5508;DHT22;2776;51.046;6.772;2023-04-01T04:03:59;9.60;99.90
5508;DHT22;2776;51.046;6.772;2023-04-01T04:06:39;9.50;99.90
5508;DHT22;2776;51.046;6.772;2023-04-01T04:09:15;9.50;99.90
5508;DHT22;2776;51.046;6.772;2023-04-01T04:11:58;9.50;99.90
5508;DHT22;2776;51.046;6.772;2023-04-01T04:14:38;9.60;99.90
5508;DHT22;2776;51.046;6.772;2023-04-01T04:17:19;9.60;99.90
5508;DHT22;2776;51.046;6.772;2023-04-01T04:20:06;9.60;99.90
5508;DHT22;2776;51.046;6.772;2023-04-01T04:22:46;9.60;99.90
5508;DHT22;2776;51.046;6.772;2023-04-01T04:25:24;9.50;99.90
5508;DHT22;2776;51.046;6.772;2023-04-01T04:28:10;9.60;99.90
5508;DHT22;2776;51.046;6.772;2023-04-01T04:30:46;9.60;99.90
5508;DHT22;2776;51.046;6.772;2023-04-01T04:33:24;9.60;99.90
5508;DHT22;2776;51.046;6.772;2023-04-01T04:36:04;9.50;99.90
5508;DHT22;2776;51.046;6.772;2023-04-01T04:38:39;9.50;99.90
5508;DHT22;2776;51.046;6.772;2023-04-01T04:41:11;9.60;99.90
5508;DHT22;2776;51.046;6.772;2023-04-01T04:43:42;9.60;99.90
5508;DHT22;2776;51.046;6.772;2023-04-01T04:46:19;9.60;99.90
5508;DHT22;2776;51.046;6.772;2023-04-01T04:48:51;9.70;99.90
5508;DHT22;2776;51.046;6.772;2023-04-01T04:51:23;9.70;99.90
5508;DHT22;2776;51.046;6.772;2023-04-01T04:53:54;9.70;99.90
5508;DHT22;2776;51.046;6.772;2023-04-01T04:56:25;9.70;99.90
5508;DHT22;2776;51.046;6.772;2023-04-01T04:58:56;9.70;99.90
5508;DHT22;2776;51.046;6.772;2023-04-01T05:01:28;9.70;99.90
5508;DHT22;2776;51.046;6.772;2023-04-01T05:04:04;9.70;99.90
5508;DHT22;2776;51.046;6.772;2023-04-01T05:06:38;9.70;99.90
5508;DHT22;2776;51.046;6.772;2023-04-01T05:09:14;9.70;99.90
5508;DHT22;2776;51.046;6.772;2023-04-01T05:11:55;9.70;99.90
5508;DHT22;2776;51.046;6.772;2023-04-01T05:14:32;9.70;99.90
5508;DHT22;2776;51.046;6.772;2023-04-01T05:17:08;9.60;99.90
5508;DHT22;2776;51.046;6.772;2023-04-01T05:19:54;9.70;99.90
5508;DHT22;2776;51.046;6.772;2023-04-01T05:22:29;9.60;99.90
5508;DHT22;2776;51.046;6.772;2023-04-01T05:25:00;9.60;99.90
5508;DHT22;2776;51.046;6.772;2023-04-01T05:27:35;9.60;99.90
5508;DHT22;2776;51.046;6.772;2023-04-01T05:30:16;9.70;99.90
5508;DHT22;2776;51.046;6.772;2023-04-01T05:32:50;9.60;99.90
5508;DHT22;2776;51.046;6.772;2023-04-01T05:35:31;9.60;99.90
5508;DHT22;2776;51.046;6.772;2023-04-01T05:38:01;9.60;99.90
5508;DHT22;2776;51.046;6.772;2023-04-01T05:40:32;9.60;99.90
5508;DHT22;2776;51.046;6.772;2023-04-01T05:43:03;9.60;99.90
5508;DHT22;2776;51.046;6.772;2023-04-01T05:45:35;9.60;99.90
5508;DHT22;2776;51.046;6.772;2023-04-01T05:48:05;9.60;99.90
5508;DHT22;2776;51.046;6.772;2023-04-01T05:50:41;9.60;99.90
5508;DHT22;2776;51.046;6.772;2023-04-01T05:53:18;9.60;99.90
5508;DHT22;2776;51.046;6.772;2023-04-01T05:55:56;9.60;99.90
5508;DHT22;2776;51.046;6.772;2023-04-01T05:58:38;9.60;99.90
5508;DHT22;2776;51.046;6.772;2023-04-01T06:01:18;9.60;99.90
5508;DHT22;2776;51.046;6.772;2023-04-01T06:03:53;9.70;99.90
5508;DHT22;2776;51.046;6.772;2023-04-01T06:06:34;9.70;99.90
5508;DHT22;2776;51.046;6.772;2023-04-01T06:09:15;9.70;99.90
5508;DHT22;2776;51.046;6.772;2023-04-01T06:20:41;9.80;99.90
5508;DHT22;2776;51.046;6.772;2023-04-01T06:23:32;9.80;99.90
5508;DHT22;2776;51.046;6.772;2023-04-01T06:26:15;9.80;99.90
5508;DHT22;2776;51.046;6.772;2023-04-01T06:29:16;9.90;99.90
5508;DHT22;2776;51.046;6.772;2023-04-01T06:32:08;9.90;99.90
5508;DHT22;2776;51.046;6.772;2023-04-01T06:37:51;10.00;99.90
5508;DHT22;2776;51.046;6.772;2023-04-01T06:40:51;10.00;99.90
5508;DHT22;2776;51.046;6.772;2023-04-01T06:43:37;10.00;99.90
5508;DHT22;2776;51.046;6.772;2023-04-01T06:46:14;10.10;99.90
5508;DHT22;2776;51.046;6.772;2023-04-01T06:48:59;10.10;99.90
5508;DHT22;2776;51.046;6.772;2023-04-01T06:51:38;10.20;99.90
5508;DHT22;2776;51.046;6.772;2023-04-01T06:54:16;10.20;99.90
5508;DHT22;2776;51.046;6.772;2023-04-01T06:56:58;10.20;99.90
5508;DHT22;2776;51.046;6.772;2023-04-01T06:59:38;10.10;99.90
5508;DHT22;2776;51.046;6.772;2023-04-01T07:02:23;10.10;99.90
5508;DHT22;2776;51.046;6.772;2023-04-01T07:04:56;10.00;99.90
5508;DHT22;2776;51.046;6.772;2023-04-01T07:07:33;10.00;99.90
5508;DHT22;2776;51.046;6.772;2023-04-01T07:10:12;10.00;99.90
5508;DHT22;2776;51.046;6.772;2023-04-01T07:12:51;10.10;99.90
5508;DHT22;2776;51.046;6.772;2023-04-01T07:15:28;10.00;99.90
5508;DHT22;2776;51.046;6.772;2023-04-01T07:18:12;10.00;99.90
5508;DHT22;2776;51.046;6.772;2023-04-01T07:20:53;10.00;99.90
5508;DHT22;2776;51.046;6.772;2023-04-01T07:23:36;10.10;99.90
5508;DHT22;2776;51.046;6.772;2023-04-01T07:26:22;10.10;99.90
5508;DHT22;2776;51.046;6.772;2023-04-01T07:28:59;10.10;99.90
5508;DHT22;2776;51.046;6.772;2023-04-01T07:31:53;10.10;99.90
5508;DHT22;2776;51.046;6.772;2023-04-01T07:34:39;10.00;99.90
5508;DHT22;2776;51.046;6.772;2023-04-01T07:37:14;10.10;99.90
5508;DHT22;2776;51.046;6.772;2023-04-01T07:39:55;10.00;99.90
5508;DHT22;2776;51.046;6.772;2023-04-01T07:42:49;10.10;99.90
5508;DHT22;2776;51.046;6.772;2023-04-01T07:45:35;10.10;99.90
5508;DHT22;2776;51.046;6.772;2023-04-01T07:48:18;10.10;99.90
5508;DHT22;2776;51.046;6.772;2023-04-01T07:50:58;10.10;99.90
5508;DHT22;2776;51.046;6.772;2023-04-01T07:53:48;10.10;99.90
5508;DHT22;2776;51.046;6.772;2023-04-01T07:56:30;10.10;99.90
5508;DHT22;2776;51.046;6.772;2023-04-01T07:59:27;10.10;99.90
5508;DHT22;2776;51.046;6.772;2023-04-01T08:05:14;10.10;99.90
5508;DHT22;2776;51.046;6.772;2023-04-01T08:07:55;10.10;99.90
5508;DHT22;2776;51.046;6.772;2023-04-01T08:10:36;10.00;99.90
5508;DHT22;2776;51.046;6.772;2023-04-01T08:16:12;10.10;99.90
5508;DHT22;2776;51.046;6.772;2023-04-01T08:19:04;10.10;99.90
5508;DHT22;2776;51.046;6.772;2023-04-01T08:21:43;10.10;99.90
5508;DHT22;2776;51.046;6.772;2023-04-01T08:24:22;10.20;99.90
5508;DHT22;2776;51.046;6.772;2023-04-01T08:27:09;10.20;99.90
5508;DHT22;2776;51.046;6.772;2023-04-01T08:29:53;10.30;99.90
5508;DHT22;2776;51.046;6.772;2023-04-01T08:32:38;10.20;99.90
5508;DHT22;2776;51.046;6.772;2023-04-01T08:35:23;10.30;99.90
5508;DHT22;2776;51.046;6.772;2023-04-01T08:38:11;10.30;99.90
5508;DHT22;2776;51.046;6.772;2023-04-01T08:41:08;10.40;99.90
5508;DHT22;2776;51.046;6.772;2023-04-01T08:47:09;10.50;99.90
5508;DHT22;2776;51.046;6.772;2023-04-01T08:50:04;10.50;99.90
5508;DHT22;2776;51.046;6.772;2023-04-01T08:52:55;10.50;99.90
5508;DHT22;2776;51.046;6.772;2023-04-01T08:55:54;10.50;99.90
5508;DHT22;2776;51.046;6.772;2023-04-01T08:58:59;10.40;99.90
5508;DHT22;2776;51.046;6.772;2023-04-01T09:02:05;10.50;99.90
5508;DHT22;2776;51.046;6.772;2023-04-01T09:08:01;10.40;99.90
5508;DHT22;2776;51.046;6.772;2023-04-01T09:10:55;10.40;99.90
5508;DHT22;2776;51.046;6.772;2023-04-01T09:13:52;10.40;99.90
5508;DHT22;2776;51.046;6.772;2023-04-01T09:19:39;10.50;99.90
5508;DHT22;2776;51.046;6.772;2023-04-01T09:22:22;10.60;99.90
5508;DHT22;2776;51.046;6.772;2023-04-01T09:25:16;10.70;99.90
5508;DHT22;2776;51.046;6.772;2023-04-01T09:27:55;10.60;99.90
5508;DHT22;2776;51.046;6.772;2023-04-01T09:30:45;10.70;99.90
5508;DHT22;2776;51.046;6.772;2023-04-01T09:36:28;10.60;99.90
5508;DHT22;2776;51.046;6.772;2023-04-01T09:39:03;10.60;99.90
5508;DHT22;2776;51.046;6.772;2023-04-01T09:41:50;10.70;99.90
5508;DHT22;2776;51.046;6.772;2023-04-01T09:44:23;10.90;99.90
5508;DHT22;2776;51.046;6.772;2023-04-01T09:47:05;11.00;99.90
5508;DHT22;2776;51.046;6.772;2023-04-01T09:50:00;11.00;99.90
5508;DHT22;2776;51.046;6.772;2023-04-01T09:52:41;11.10;99.90
5508;DHT22;2776;51.046;6.772;2023-04-01T09:55:25;11.00;99.90
5508;DHT22;2776;51.046;6.772;2023-04-01T09:58:27;10.90;99.90
5508;DHT22;2776;51.046;6.772;2023-04-01T10:07:32;10.80;99.90
5508;DHT22;2776;51.046;6.772;2023-04-01T10:10:32;10.90;99.90
5508;DHT22;2776;51.046;6.772;2023-04-01T10:16:22;11.00;99.90
5508;DHT22;2776;51.046;6.772;2023-04-01T10:25:10;10.90;99.90
5508;DHT22;2776;51.046;6.772;2023-04-01T10:27:54;10.70;99.90
5508;DHT22;2776;51.046;6.772;2023-04-01T10:33:51;10.80;99.90
5508;DHT22;2776;51.046;6.772;2023-04-01T10:36:46;10.80;99.90
5508;DHT22;2776;51.046;6.772;2023-04-01T10:39:34;10.90;99.90
5508;DHT22;2776;51.046;6.772;2023-04-01T10:42:54;11.00;99.90
5508;DHT22;2776;51.046;6.772;2023-04-01T10:48:57;10.90;99.90
5508;DHT22;2776;51.046;6.772;2023-04-01T10:51:56;10.90;99.90
5508;DHT22;2776;51.046;6.772;2023-04-01T10:54:43;10.80;99.90
5508;DHT22;2776;51.046;6.772;2023-04-01T10:57:31;10.90;99.90
5508;DHT22;2776;51.046;6.772;2023-04-01T11:03:35;10.90;99.90
5508;DHT22;2776;51.046;6.772;2023-04-01T11:09:34;11.10;99.90
5508;DHT22;2776;51.046;6.772;2023-04-01T11:12:33;10.90;99.90
5508;DHT22;2776;51.046;6.772;2023-04-01T11:18:36;11.20;99.90
5508;DHT22;2776;51.046;6.772;2023-04-01T11:24:44;11.30;99.90
5508;DHT22;2776;51.046;6.772;2023-04-01T11:27:43;11.50;99.90
5508;DHT22;2776;51.046;6.772;2023-04-01T11:30:25;11.60;99.90
5508;DHT22;2776;51.046;6.772;2023-04-01T11:33:00;11.90;99.90
5508;DHT22;2776;51.046;6.772;2023-04-01T11:35:49;12.20;99.90
5508;DHT22;2776;51.046;6.772;2023-04-01T11:38:35;12.50;99.90
5508;DHT22;2776;51.046;6.772;2023-04-01T11:41:19;12.60;99.90
5508;DHT22;2776;51.046;6.772;2023-04-01T11:44:01;12.60;99.90
5508;DHT22;2776;51.046;6.772;2023-04-01T11:46:36;12.80;99.90
5508;DHT22;2776;51.046;6.772;2023-04-01T11:49:19;13.00;99.90
5508;DHT22;2776;51.046;6.772;2023-04-01T11:52:03;12.80;99.90
5508;DHT22;2776;51.046;6.772;2023-04-01T11:54:51;12.90;99.90
5508;DHT22;2776;51.046;6.772;2023-04-01T11:57:43;13.10;99.90
5508;DHT22;2776;51.046;6.772;2023-04-01T12:00:32;13.20;99.90
5508;DHT22;2776;51.046;6.772;2023-04-01T12:03:18;13.20;99.90
5508;DHT22;2776;51.046;6.772;2023-04-01T12:05:50;13.10;99.90
5508;DHT22;2776;51.046;6.772;2023-04-01T12:08:27;13.50;99.90
5508;DHT22;2776;51.046;6.772;2023-04-01T12:11:04;13.60;99.90
5508;DHT22;2776;51.046;6.772;2023-04-01T12:13:39;13.50;99.90
5508;DHT22;2776;51.046;6.772;2023-04-01T12:16:29;13.50;99.90
5508;DHT22;2776;51.046;6.772;2023-04-01T12:19:08;13.40;99.90
5508;DHT22;2776;51.046;6.772;2023-04-01T12:21:37;13.30;99.90
5508;DHT22;2776;51.046;6.772;2023-04-01T12:24:29;13.00;99.90
5508;DHT22;2776;51.046;6.772;2023-04-01T12:27:09;13.10;99.90
5508;DHT22;2776;51.046;6.772;2023-04-01T12:30:06;13.10;99.90
5508;DHT22;2776;51.046;6.772;2023-04-01T12:32:44;13.20;99.90
5508;DHT22;2776;51.046;6.772;2023-04-01T12:35:18;13.40;99.90
5508;DHT22;2776;51.046;6.772;2023-04-01T12:37:54;13.30;99.90
5508;DHT22;2776;51.046;6.772;2023-04-01T12:40:36;13.60;99.90
5508;DHT22;2776;51.046;6.772;2023-04-01T12:43:15;13.80;99.90
5508;DHT22;2776;51.046;6.772;2023-04-01T12:45:51;13.50;99.90
5508;DHT22;2776;51.046;6.772;2023-04-01T12:48:40;13.40;99.90
5508;DHT22;2776;51.046;6.772;2023-04-01T12:51:29;13.40;99.90
5508;DHT22;2776;51.046;6.772;2023-04-01T12:54:36;13.30;99.90
5508;DHT22;2776;51.046;6.772;2023-04-01T12:57:24;13.30;99.90
5508;DHT22;2776;51.046;6.772;2023-04-01T13:00:12;13.10;99.90
5508;DHT22;2776;51.046;6.772;2023-04-01T13:02:52;12.80;99.90
5508;DHT22;2776;51.046;6.772;2023-04-01T13:05:36;12.60;99.90
5508;DHT22;2776;51.046;6.772;2023-04-01T13:08:14;12.40;99.90
5508;DHT22;2776;51.046;6.772;2023-04-01T13:10:58;12.50;99.90
5508;DHT22;2776;51.046;6.772;2023-04-01T13:16:39;12.30;99.90
5508;DHT22;2776;51.046;6.772;2023-04-01T13:19:13;12.00;99.90
5508;DHT22;2776;51.046;6.772;2023-04-01T13:21:49;11.90;99.90
5508;DHT22;2776;51.046;6.772;2023-04-01T13:24:28;11.90;99.90
5508;DHT22;2776;51.046;6.772;2023-04-01T13:27:01;11.70;99.90
5508;DHT22;2776;51.046;6.772;2023-04-01T13:29:34;11.70;99.90
5508;DHT22;2776;51.046;6.772;2023-04-01T13:32:12;11.60;99.90
5508;DHT22;2776;51.046;6.772;2023-04-01T13:34:51;11.40;99.90
5508;DHT22;2776;51.046;6.772;2023-04-01T13:37:31;11.40;99.90
5508;DHT22;2776;51.046;6.772;2023-04-01T13:40:27;11.50;99.90
5508;DHT22;2776;51.046;6.772;2023-04-01T13:43:04;11.70;99.90
5508;DHT22;2776;51.046;6.772;2023-04-01T13:45:38;11.50;99.90
5508;DHT22;2776;51.046;6.772;2023-04-01T13:48:28;11.40;99.90
5508;DHT22;2776;51.046;6.772;2023-04-01T13:54:33;11.60;99.90
5508;DHT22;2776;51.046;6.772;2023-04-01T13:57:26;11.80;99.90
5508;DHT22;2776;51.046;6.772;2023-04-01T14:00:10;12.00;99.90
5508;DHT22;2776;51.046;6.772;2023-04-01T14:03:19;12.00;99.90
5508;DHT22;2776;51.046;6.772;2023-04-01T14:05:56;12.10;99.90
5508;DHT22;2776;51.046;6.772;2023-04-01T14:08:36;12.20;99.90
5508;DHT22;2776;51.046;6.772;2023-04-01T14:11:14;12.10;99.90
5508;DHT22;2776;51.046;6.772;2023-04-01T14:13:50;12.00;99.90
5508;DHT22;2776;51.046;6.772;2023-04-01T14:19:39;12.10;99.90
5508;DHT22;2776;51.046;6.772;2023-04-01T14:22:16;12.10;99.90
5508;DHT22;2776;51.046;6.772;2023-04-01T14:27:43;11.90;99.90
5508;DHT22;2776;51.046;6.772;2023-04-01T14:30:31;11.80;99.90
5508;DHT22;2776;51.046;6.772;2023-04-01T14:33:10;11.70;99.90
5508;DHT22;2776;51.046;6.772;2023-04-01T14:35:44;11.80;99.90
5508;DHT22;2776;51.046;6.772;2023-04-01T14:38:32;11.80;99.90
5508;DHT22;2776;51.046;6.772;2023-04-01T14:41:19;11.80;99.90
5508;DHT22;2776;51.046;6.772;2023-04-01T14:43:58;11.80;99.90
5508;DHT22;2776;51.046;6.772;2023-04-01T14:47:03;11.80;99.90
5508;DHT22;2776;51.046;6.772;2023-04-01T14:49:34;11.80;99.90
5508;DHT22;2776;51.046;6.772;2023-04-01T14:52:05;11.70;99.90
5508;DHT22;2776;51.046;6.772;2023-04-01T14:54:37;11.80;99.90
5508;DHT22;2776;51.046;6.772;2023-04-01T14:57:10;11.60;99.90
5508;DHT22;2776;51.046;6.772;2023-04-01T14:59:45;11.60;99.90
5508;DHT22;2776;51.046;6.772;2023-04-01T15:02:25;11.50;99.90
5508;DHT22;2776;51.046;6.772;2023-04-01T15:04:59;11.50;99.90
5508;DHT22;2776;51.046;6.772;2023-04-01T15:07:57;11.50;99.90
5508;DHT22;2776;51.046;6.772;2023-04-01T15:10:54;11.40;99.90
5508;DHT22;2776;51.046;6.772;2023-04-01T15:13:38;11.40;99.90
5508;DHT22;2776;51.046;6.772;2023-04-01T15:16:18;11.40;99.90
5508;DHT22;2776;51.046;6.772;2023-04-01T15:18:53;11.20;99.90
5508;DHT22;2776;51.046;6.772;2023-04-01T15:21:37;11.20;99.90
5508;DHT22;2776;51.046;6.772;2023-04-01T15:24:15;11.20;99.90
5508;DHT22;2776;51.046;6.772;2023-04-01T15:27:03;11.30;99.90
5508;DHT22;2776;51.046;6.772;2023-04-01T15:29:47;11.20;99.90
5508;DHT22;2776;51.046;6.772;2023-04-01T15:32:25;11.20;99.90
5508;DHT22;2776;51.046;6.772;2023-04-01T15:34:58;11.40;99.90
5508;DHT22;2776;51.046;6.772;2023-04-01T15:37:35;11.40;99.90
5508;DHT22;2776;51.046;6.772;2023-04-01T15:40:15;11.50;99.90
5508;DHT22;2776;51.046;6.772;2023-04-01T15:42:55;11.60;99.90
5508;DHT22;2776;51.046;6.772;2023-04-01T15:45:35;11.70;99.90
5508;DHT22;2776;51.046;6.772;2023-04-01T15:48:18;11.60;99.90
5508;DHT22;2776;51.046;6.772;2023-04-01T15:51:16;11.60;99.90
5508;DHT22;2776;51.046;6.772;2023-04-01T15:53:56;11.50;99.90
5508;DHT22;2776;51.046;6.772;2023-04-01T15:56:36;11.40;99.90
5508;DHT22;2776;51.046;6.772;2023-04-01T15:59:18;11.30;99.90
5508;DHT22;2776;51.046;6.772;2023-04-01T16:01:53;11.50;99.90
5508;DHT22;2776;51.046;6.772;2023-04-01T16:04:46;11.60;99.90
5508;DHT22;2776;51.046;6.772;2023-04-01T16:10:16;11.50;99.90
5508;DHT22;2776;51.046;6.772;2023-04-01T16:12:53;11.40;99.90
5508;DHT22;2776;51.046;6.772;2023-04-01T16:15:27;11.40;99.90
5508;DHT22;2776;51.046;6.772;2023-04-01T16:20:58;11.10;99.90
5508;DHT22;2776;51.046;6.772;2023-04-01T16:23:30;11.10;99.90
5508;DHT22;2776;51.046;6.772;2023-04-01T16:26:07;11.20;99.90
5508;DHT22;2776;51.046;6.772;2023-04-01T16:28:38;11.10;99.90
5508;DHT22;2776;51.046;6.772;2023-04-01T16:31:10;11.00;99.90
5508;DHT22;2776;51.046;6.772;2023-04-01T16:33:46;11.00;99.90
5508;DHT22;2776;51.046;6.772;2023-04-01T16:36:22;10.90;99.90
5508;DHT22;2776;51.046;6.772;2023-04-01T16:38:55;11.00;99.90
5508;DHT22;2776;51.046;6.772;2023-04-01T16:41:30;11.00;99.90
5508;DHT22;2776;51.046;6.772;2023-04-01T16:44:10;10.90;99.90
5508;DHT22;2776;51.046;6.772;2023-04-01T16:46:41;11.00;99.90
5508;DHT22;2776;51.046;6.772;2023-04-01T16:49:23;11.00;99.90
5508;DHT22;2776;51.046;6.772;2023-04-01T16:51:56;11.10;99.90
5508;DHT22;2776;51.046;6.772;2023-04-01T16:54:30;11.20;99.90
5508;DHT22;2776;51.046;6.772;2023-04-01T16:57:10;11.10;99.90
5508;DHT22;2776;51.046;6.772;2023-04-01T16:59:45;11.00;99.90
5508;DHT22;2776;51.046;6.772;2023-04-01T17:02:15;10.80;99.90
5508;DHT22;2776;51.046;6.772;2023-04-01T17:04:45;10.70;99.90
5508;DHT22;2776;51.046;6.772;2023-04-01T17:07:26;10.60;99.90
5508;DHT22;2776;51.046;6.772;2023-04-01T17:12:59;10.70;99.90
5508;DHT22;2776;51.046;6.772;2023-04-01T17:15:31;10.80;99.90
5508;DHT22;2776;51.046;6.772;2023-04-01T17:18:02;10.80;99.90
5508;DHT22;2776;51.046;6.772;2023-04-01T17:20:45;10.90;99.90
5508;DHT22;2776;51.046;6.772;2023-04-01T17:23:20;10.80;99.90
5508;DHT22;2776;51.046;6.772;2023-04-01T17:26:13;10.70;99.90
5508;DHT22;2776;51.046;6.772;2023-04-01T17:28:48;10.80;99.90
5508;DHT22;2776;51.046;6.772;2023-04-01T17:31:26;10.70;99.90
5508;DHT22;2776;51.046;6.772;2023-04-01T17:34:12;10.70;99.90
5508;DHT22;2776;51.046;6.772;2023-04-01T17:36:50;10.50;99.90
5508;DHT22;2776;51.046;6.772;2023-04-01T17:39:36;10.50;99.90
5508;DHT22;2776;51.046;6.772;2023-04-01T17:42:06;10.50;99.90
5508;DHT22;2776;51.046;6.772;2023-04-01T17:44:45;10.40;99.90
5508;DHT22;2776;51.046;6.772;2023-04-01T17:47:29;10.40;99.90
5508;DHT22;2776;51.046;6.772;2023-04-01T17:50:07;10.40;99.90
5508;DHT22;2776;51.046;6.772;2023-04-01T17:52:39;10.40;99.90
5508;DHT22;2776;51.046;6.772;2023-04-01T17:55:30;10.40;99.90
5508;DHT22;2776;51.046;6.772;2023-04-01T17:58:02;10.50;99.90
5508;DHT22;2776;51.046;6.772;2023-04-01T18:00:36;10.40;99.90
5508;DHT22;2776;51.046;6.772;2023-04-01T18:03:13;10.30;99.90
5508;DHT22;2776;51.046;6.772;2023-04-01T18:05:52;10.20;99.90
5508;DHT22;2776;51.046;6.772;2023-04-01T18:08:41;10.20;99.90
5508;DHT22;2776;51.046;6.772;2023-04-01T18:11:20;10.20;99.90
5508;DHT22;2776;51.046;6.772;2023-04-01T18:16:56;10.10;99.90
5508;DHT22;2776;51.046;6.772;2023-04-01T18:19:32;10.10;99.90
5508;DHT22;2776;51.046;6.772;2023-04-01T18:22:10;10.30;99.90
5508;DHT22;2776;51.046;6.772;2023-04-01T18:24:45;10.20;99.90
5508;DHT22;2776;51.046;6.772;2023-04-01T18:27:18;10.20;99.90
5508;DHT22;2776;51.046;6.772;2023-04-01T18:29:50;10.20;99.90
5508;DHT22;2776;51.046;6.772;2023-04-01T18:32:26;10.30;99.90
5508;DHT22;2776;51.046;6.772;2023-04-01T18:35:00;10.30;99.90
5508;DHT22;2776;51.046;6.772;2023-04-01T18:37:32;10.30;99.90
5508;DHT22;2776;51.046;6.772;2023-04-01T18:40:10;10.30;99.90
5508;DHT22;2776;51.046;6.772;2023-04-01T18:42:52;10.30;99.90
5508;DHT22;2776;51.046;6.772;2023-04-01T18:45:23;10.30;99.90
5508;DHT22;2776;51.046;6.772;2023-04-01T18:48:00;10.30;99.90
5508;DHT22;2776;51.046;6.772;2023-04-01T18:50:32;10.10;99.90
5508;DHT22;2776;51.046;6.772;2023-04-01T18:53:13;10.10;99.90
5508;DHT22;2776;51.046;6.772;2023-04-01T18:55:47;10.00;99.90
5508;DHT22;2776;51.046;6.772;2023-04-01T18:58:22;10.00;99.90
5508;DHT22;2776;51.046;6.772;2023-04-01T19:01:04;10.00;99.90
5508;DHT22;2776;51.046;6.772;2023-04-01T19:03:34;10.10;99.90
5508;DHT22;2776;51.046;6.772;2023-04-01T19:06:15;10.10;99.90
5508;DHT22;2776;51.046;6.772;2023-04-01T19:08:44;10.20;99.90
5508;DHT22;2776;51.046;6.772;2023-04-01T19:11:17;10.20;99.90
5508;DHT22;2776;51.046;6.772;2023-04-01T19:13:54;10.30;99.90
5508;DHT22;2776;51.046;6.772;2023-04-01T19:16:32;10.30;99.90
5508;DHT22;2776;51.046;6.772;2023-04-01T19:19:19;10.30;99.90
5508;DHT22;2776;51.046;6.772;2023-04-01T19:21:54;10.20;99.90